Pagina principale
METAR-TAF:

METAR-TAF

Aeroporti :

Treviso, Italia

Aeroporto di Treviso-Istrana

latitudine: 45-41N, longitudine: 012-06E, altezza: 45 m

Osservazione

Il bollettino è stato emesso 46 minuti fa, alle 08:55 UTC
Vento 3 kt da sud-ovest
Temperature 26°C
Umidità 54%
Pressione 1017 hPa
Visibilità 10 km o più
nessuna nube inferiore a 1500 m e nessun cumulonembo

METAR: LIPS 290855Z 23003KT CAVOK 26/16 Q1017 RMK SKC VIS MIN 9999 WIND THR26 00000KT WIND THR08 24003KT BLU

Ora: 11:41 (09:41 UTC)

Previsione

Il bollettino è stato emesso 1 ora e 41 minuti fa, alle 08:00 UTC
Previsione valida dal 29 alle 09 UTC al 29 alle 18 UTC
Vento 5 kt da est/sud-est
Visibilità 10 km o più
nessuna nube inferiore a 1500 m e nessun cumulonembo
Evoluzione graduale
dal 29 alle 12 UTC al 29 alle 14 UTC
Vento 12 kt da sud

TAF: LIPS 290800Z 2909/2918 11005KT CAVOK BECMG 2912/2914 17012KT

Osservazioni e previsioni meteorologiche di più di 4000 aeroporti (messaggi METAR e TAF).

Le stazioni disponibili sono rappresentate dai dischi gialli e rossi sulla carta.

Puntare il mouse per vedere il nome della stazione.

Clicca sopra per visualizzare le osservazioni e previsioni meteorologiche.

Per cambiare la mappa : fare clic sui pulsanti verdi con una croce nera per ingrandire, il pulsante verde con un trattino per diminuire, o sulla freccia verde per le mappe adiacenti.


METAR-TAF: